Time,TemperatureF,DewpointF,PressureIn,WindDirection,WindDirectionDegrees,WindSpeedMPH,WindSpeedGustMPH,Humidity,HourlyPrecipIn,Conditions,Clouds,dailyrainin,SolarRadiationWatts/m^2,SoftwareType,DateUTC
2013-03-16 00:02:00,8.0,3.0,-100.00,North,0,4.0,9.0,78,0.00,,,0.00,0.000000,,2013-03-16 05:02:00,
2013-03-16 00:12:00,8.0,3.0,-100.00,North,0,4.0,9.0,78,0.00,,,0.00,0.000000,,2013-03-16 05:12:00,
2013-03-16 00:32:00,7.0,2.0,-100.00,North,4,4.0,8.0,80,0.00,,,0.00,0.000000,,2013-03-16 05:32:00,
2013-03-16 00:42:00,7.0,2.0,-100.00,North,4,4.0,8.0,80,0.00,,,0.00,0.000000,,2013-03-16 05:42:00,
2013-03-16 00:53:00,7.0,2.0,-100.00,North,4,4.0,8.0,80,0.00,,,0.00,0.000000,,2013-03-16 05:53:00,
2013-03-16 01:02:00,7.0,2.0,-100.00,North,4,4.0,8.0,80,0.00,,,0.00,0.000000,,2013-03-16 06:02:00,
2013-03-16 01:12:00,7.0,2.0,-100.00,North,4,4.0,8.0,80,0.00,,,0.00,0.000000,,2013-03-16 06:12:00,
2013-03-16 01:32:00,6.0,2.0,-100.00,North,3,3.0,6.0,82,0.00,,,0.00,0.000000,,2013-03-16 06:32:00,
2013-03-16 01:42:00,6.0,2.0,-100.00,North,3,3.0,6.0,82,0.00,,,0.00,0.000000,,2013-03-16 06:42:00,
2013-03-16 01:52:00,6.0,2.0,-100.00,North,3,3.0,6.0,82,0.00,,,0.00,0.000000,,2013-03-16 06:52:00,
2013-03-16 02:02:00,6.0,2.0,-100.00,North,3,3.0,6.0,82,0.00,,,0.00,0.000000,,2013-03-16 07:02:00,
2013-03-16 02:12:00,6.0,2.0,-100.00,North,3,3.0,6.0,82,0.00,,,0.00,0.000000,,2013-03-16 07:12:00,
2013-03-16 02:42:00,5.0,1.0,-100.00,North,351,4.0,7.0,84,0.00,,,0.00,0.000000,,2013-03-16 07:42:00,
2013-03-16 02:52:00,5.0,1.0,-100.00,North,351,4.0,7.0,84,0.00,,,0.00,0.000000,,2013-03-16 07:52:00,
2013-03-16 03:02:00,5.0,1.0,-100.00,North,351,4.0,7.0,84,0.00,,,0.00,0.000000,,2013-03-16 08:02:00,
2013-03-16 03:12:00,5.0,1.0,-100.00,North,351,4.0,7.0,84,0.00,,,0.00,0.000000,,2013-03-16 08:12:00,
2013-03-16 03:42:00,3.0,-1.0,-100.00,NNW,346,4.0,7.0,83,0.00,,,0.00,0.000000,,2013-03-16 08:42:00,
2013-03-16 03:52:00,3.0,-1.0,-100.00,NNW,346,4.0,7.0,83,0.00,,,0.00,0.000000,,2013-03-16 08:52:00,
2013-03-16 04:02:00,3.0,-1.0,-100.00,NNW,346,4.0,7.0,83,0.00,,,0.00,0.000000,,2013-03-16 09:02:00,
2013-03-16 04:12:00,3.0,-1.0,-100.00,NNW,346,4.0,7.0,83,0.00,,,0.00,0.000000,,2013-03-16 09:12:00,
2013-03-16 04:33:00,2.0,-2.0,-100.00,North,355,5.0,8.0,81,0.00,,,0.00,0.000000,,2013-03-16 09:33:00,
2013-03-16 04:42:00,2.0,-2.0,-100.00,North,355,5.0,8.0,81,0.00,,,0.00,0.000000,,2013-03-16 09:42:00,
2013-03-16 04:53:00,2.0,-2.0,-100.00,North,355,5.0,8.0,81,0.00,,,0.00,0.000000,,2013-03-16 09:53:00,
2013-03-16 05:03:00,2.0,-2.0,-100.00,North,355,5.0,8.0,81,0.00,,,0.00,0.000000,,2013-03-16 10:03:00,
2013-03-16 05:12:00,2.0,-2.0,-100.00,North,355,5.0,8.0,81,0.00,,,0.00,0.000000,,2013-03-16 10:12:00,
2013-03-16 05:32:00,1.0,-3.0,-100.00,NNW,329,2.0,8.0,82,0.00,,,0.00,0.000000,,2013-03-16 10:32:00,
2013-03-16 05:42:00,1.0,-3.0,-100.00,NNW,329,2.0,8.0,82,0.00,,,0.00,0.000000,,2013-03-16 10:42:00,
2013-03-16 05:53:00,1.0,-3.0,-100.00,NNW,329,2.0,8.0,82,0.00,,,0.00,0.000000,,2013-03-16 10:53:00,
2013-03-16 06:03:00,1.0,-3.0,-100.00,NNW,329,2.0,8.0,82,0.00,,,0.00,0.000000,,2013-03-16 11:03:00,
2013-03-16 06:12:00,1.0,-3.0,-100.00,NNW,329,2.0,8.0,82,0.00,,,0.00,0.000000,,2013-03-16 11:12:00,
2013-03-16 06:33:00,1.0,-3.0,-100.00,NW,320,4.0,5.0,82,0.00,,,0.00,0.000000,,2013-03-16 11:33:00,
2013-03-16 06:43:00,1.0,-3.0,-100.00,NW,320,4.0,5.0,82,0.00,,,0.00,0.000000,,2013-03-16 11:43:00,
2013-03-16 06:53:00,1.0,-3.0,-100.00,NW,320,4.0,5.0,82,0.00,,,0.00,0.000000,,2013-03-16 11:53:00,
2013-03-16 07:02:00,1.0,-3.0,-100.00,NW,320,4.0,5.0,82,0.00,,,0.00,0.000000,,2013-03-16 12:02:00,
2013-03-16 07:12:00,1.0,-3.0,-100.00,NW,320,4.0,5.0,82,0.00,,,0.00,0.000000,,2013-03-16 12:12:00,
2013-03-16 07:32:00,0.0,-5.0,-100.00,NW,307,2.0,6.0,80,0.00,,,0.00,1.000000,,2013-03-16 12:32:00,
2013-03-16 07:43:00,0.0,-5.0,-100.00,NW,307,2.0,6.0,80,0.00,,,0.00,1.000000,,2013-03-16 12:43:00,
2013-03-16 07:53:00,0.0,-5.0,-100.00,NW,307,2.0,6.0,80,0.00,,,0.00,1.000000,,2013-03-16 12:53:00,
2013-03-16 08:02:00,0.0,-5.0,-100.00,NW,307,2.0,6.0,80,0.00,,,0.00,1.000000,,2013-03-16 13:02:00,
2013-03-16 08:12:00,0.0,-5.0,-100.00,NW,307,2.0,6.0,80,0.00,,,0.00,1.000000,,2013-03-16 13:12:00,
2013-03-16 08:42:00,2.0,-3.0,-100.00,NW,306,4.0,6.0,78,0.00,,,0.00,20.000000,,2013-03-16 13:42:00,
2013-03-16 08:53:00,2.0,-3.0,-100.00,NW,306,4.0,6.0,78,0.00,,,0.00,20.000000,,2013-03-16 13:53:00,
2013-03-16 09:02:00,2.0,-3.0,-100.00,NW,306,4.0,6.0,78,0.00,,,0.00,20.000000,,2013-03-16 14:02:00,
2013-03-16 09:12:00,2.0,-3.0,-100.00,NW,306,4.0,6.0,78,0.00,,,0.00,20.000000,,2013-03-16 14:12:00,
2013-03-16 09:42:00,5.0,-2.0,-100.00,NW,318,5.0,7.0,73,0.00,,,0.00,106.000000,,2013-03-16 14:42:00,
2013-03-16 09:52:00,5.0,-2.0,-100.00,NW,318,5.0,7.0,73,0.00,,,0.00,106.000000,,2013-03-16 14:52:00,
2013-03-16 10:02:00,5.0,-2.0,-100.00,NW,318,5.0,7.0,73,0.00,,,0.00,106.000000,,2013-03-16 15:02:00,
2013-03-16 10:12:00,5.0,-2.0,-100.00,NW,318,5.0,7.0,73,0.00,,,0.00,106.000000,,2013-03-16 15:12:00,
2013-03-16 10:44:00,9.0,-1.0,-100.00,NW,306,5.0,12.0,63,0.00,,,0.00,207.000000,,2013-03-16 15:44:00,
2013-03-16 10:53:00,9.0,-1.0,-100.00,NW,306,5.0,12.0,63,0.00,,,0.00,207.000000,,2013-03-16 15:53:00,
2013-03-16 11:03:00,9.0,-1.0,-100.00,NW,306,5.0,12.0,63,0.00,,,0.00,207.000000,,2013-03-16 16:03:00,
2013-03-16 11:12:00,9.0,-1.0,-100.00,NW,306,5.0,12.0,63,0.00,,,0.00,207.000000,,2013-03-16 16:12:00,
2013-03-16 11:43:00,12.0,-2.0,-100.00,NW,306,8.0,12.0,53,0.00,,,0.00,402.000000,,2013-03-16 16:43:00,
2013-03-16 11:53:00,12.0,-2.0,-100.00,NW,306,8.0,12.0,53,0.00,,,0.00,402.000000,,2013-03-16 16:53:00,
2013-03-16 12:03:00,12.0,-2.0,-100.00,NW,306,8.0,12.0,53,0.00,,,0.00,402.000000,,2013-03-16 17:03:00,
2013-03-16 12:12:00,12.0,-2.0,-100.00,NW,306,8.0,12.0,53,0.00,,,0.00,402.000000,,2013-03-16 17:12:00,
2013-03-16 12:13:00,15.0,-1.0,-100.00,WNW,287,8.0,16.0,49,0.00,,,0.00,597.000000,,2013-03-16 17:13:00,
2013-03-16 12:43:00,15.0,-1.0,-100.00,WNW,287,8.0,16.0,49,0.00,,,0.00,597.000000,,2013-03-16 17:43:00,
2013-03-16 12:53:00,15.0,-1.0,-100.00,WNW,287,8.0,16.0,49,0.00,,,0.00,597.000000,,2013-03-16 17:53:00,
2013-03-16 13:02:00,15.0,-1.0,-100.00,WNW,287,8.0,16.0,49,0.00,,,0.00,597.000000,,2013-03-16 18:02:00,
2013-03-16 13:33:00,15.0,-1.0,-100.00,NW,310,11.0,20.0,49,0.00,,,0.00,515.000000,,2013-03-16 18:33:00,
2013-03-16 13:43:00,15.0,-1.0,-100.00,NW,310,11.0,20.0,49,0.00,,,0.00,515.000000,,2013-03-16 18:43:00,
2013-03-16 13:53:00,15.0,-1.0,-100.00,NW,310,11.0,20.0,49,0.00,,,0.00,515.000000,,2013-03-16 18:53:00,
2013-03-16 14:02:00,15.0,-1.0,-100.00,NW,310,11.0,20.0,49,0.00,,,0.00,515.000000,,2013-03-16 19:02:00,
2013-03-16 14:12:00,15.0,-1.0,-100.00,NW,310,11.0,20.0,49,0.00,,,0.00,515.000000,,2013-03-16 19:12:00,
2013-03-16 14:42:00,15.0,-1.0,-100.00,WNW,294,12.0,21.0,48,0.00,,,0.00,579.000000,,2013-03-16 19:42:00,
2013-03-16 14:53:00,15.0,-1.0,-100.00,WNW,294,12.0,21.0,48,0.00,,,0.00,579.000000,,2013-03-16 19:53:00,
2013-03-16 15:02:00,15.0,-1.0,-100.00,WNW,294,12.0,21.0,48,0.00,,,0.00,579.000000,,2013-03-16 20:02:00,
2013-03-16 15:12:00,15.0,-1.0,-100.00,WNW,294,12.0,21.0,48,0.00,,,0.00,579.000000,,2013-03-16 20:12:00,
2013-03-16 15:42:00,15.0,-1.0,-100.00,WNW,302,14.0,22.0,48,0.00,,,0.00,338.000000,,2013-03-16 20:42:00,
2013-03-16 15:52:00,15.0,-1.0,-100.00,WNW,302,14.0,22.0,48,0.00,,,0.00,338.000000,,2013-03-16 20:52:00,
2013-03-16 16:02:00,15.0,-1.0,-100.00,WNW,302,14.0,22.0,48,0.00,,,0.00,338.000000,,2013-03-16 21:02:00,
2013-03-16 16:12:00,15.0,-1.0,-100.00,WNW,302,14.0,22.0,48,0.00,,,0.00,338.000000,,2013-03-16 21:12:00,
2013-03-16 16:43:00,16.0,-1.0,-100.00,WNW,301,15.0,26.0,46,0.00,,,0.00,315.000000,,2013-03-16 21:43:00,
2013-03-16 16:53:00,16.0,-1.0,-100.00,WNW,301,15.0,26.0,46,0.00,,,0.00,315.000000,,2013-03-16 21:53:00,
2013-03-16 17:03:00,16.0,-1.0,-100.00,WNW,301,15.0,26.0,46,0.00,,,0.00,315.000000,,2013-03-16 22:03:00,
2013-03-16 17:12:00,16.0,-1.0,-100.00,WNW,301,15.0,26.0,46,0.00,,,0.00,315.000000,,2013-03-16 22:12:00,
2013-03-16 17:33:00,13.0,-5.0,-100.00,NW,305,17.0,30.0,44,0.00,,,0.00,232.000000,,2013-03-16 22:33:00,
2013-03-16 17:42:00,13.0,-5.0,-100.00,NW,305,17.0,30.0,44,0.00,,,0.00,232.000000,,2013-03-16 22:42:00,
2013-03-16 17:53:00,13.0,-5.0,-100.00,NW,305,17.0,30.0,44,0.00,,,0.00,232.000000,,2013-03-16 22:53:00,
2013-03-16 18:02:00,13.0,-5.0,-100.00,NW,305,17.0,30.0,44,0.00,,,0.00,232.000000,,2013-03-16 23:02:00,
2013-03-16 18:12:00,13.0,-5.0,-100.00,NW,305,17.0,30.0,44,0.00,,,0.00,232.000000,,2013-03-16 23:12:00,
2013-03-16 18:42:00,9.0,-5.0,-100.00,NW,319,13.0,28.0,52,0.00,,,0.00,129.000000,,2013-03-16 23:42:00,
2013-03-16 18:52:00,9.0,-5.0,-100.00,NW,319,13.0,28.0,52,0.00,,,0.00,129.000000,,2013-03-16 23:52:00,
2013-03-16 19:02:00,9.0,-5.0,-100.00,NW,319,13.0,28.0,52,0.00,,,0.00,129.000000,,2013-03-17 00:02:00,
2013-03-16 19:12:00,9.0,-5.0,-100.00,NW,319,13.0,28.0,52,0.00,,,0.00,129.000000,,2013-03-17 00:12:00,
2013-03-16 20:43:00,4.0,-6.0,-100.00,NW,319,11.0,25.0,63,-99.99,,,0.00,1.000000,,2013-03-17 01:43:00,
2013-03-16 20:53:00,4.0,-6.0,-100.00,NW,319,11.0,25.0,63,-99.99,,,0.00,1.000000,,2013-03-17 01:53:00,
2013-03-16 21:02:00,4.0,-6.0,-100.00,NW,319,11.0,25.0,63,-99.99,,,0.00,1.000000,,2013-03-17 02:02:00,
2013-03-16 21:12:00,4.0,-6.0,-100.00,NW,319,11.0,25.0,63,-99.99,,,0.00,1.000000,,2013-03-17 02:12:00,
2013-03-16 21:43:00,2.0,-6.0,-100.00,NW,308,7.0,17.0,69,0.00,,,0.00,1.000000,,2013-03-17 02:43:00,
2013-03-16 21:53:00,2.0,-6.0,-100.00,NW,308,7.0,17.0,69,0.00,,,0.00,1.000000,,2013-03-17 02:53:00,
2013-03-16 22:02:00,2.0,-6.0,-100.00,NW,308,7.0,17.0,69,0.00,,,0.00,1.000000,,2013-03-17 03:02:00,
2013-03-16 22:12:00,2.0,-6.0,-100.00,NW,308,7.0,17.0,69,0.00,,,0.00,1.000000,,2013-03-17 03:12:00,
2013-03-16 22:34:00,1.0,-5.0,-100.00,WNW,303,7.0,11.0,76,0.00,,,0.00,0.000000,,2013-03-17 03:34:00,
2013-03-16 22:43:00,1.0,-5.0,-100.00,WNW,303,7.0,11.0,76,0.00,,,0.00,0.000000,,2013-03-17 03:43:00,
2013-03-16 22:53:00,1.0,-5.0,-100.00,WNW,303,7.0,11.0,76,0.00,,,0.00,0.000000,,2013-03-17 03:53:00,
2013-03-16 23:03:00,1.0,-5.0,-100.00,WNW,303,7.0,11.0,76,0.00,,,0.00,0.000000,,2013-03-17 04:03:00,
2013-03-16 23:12:00,1.0,-5.0,-100.00,WNW,303,7.0,11.0,76,0.00,,,0.00,0.000000,,2013-03-17 04:12:00,
2013-03-16 23:43:00,0.0,-7.0,-100.00,NW,312,8.0,13.0,72,0.00,,,0.00,1.000000,,2013-03-17 04:43:00,
2013-03-16 23:53:00,0.0,-7.0,-100.00,NW,312,8.0,13.0,72,0.00,,,0.00,1.000000,,2013-03-17 04:53:00,